createdAt,value
2018-05-24T00:00:04.382Z,22.38
2018-05-24T00:00:35.956Z,22.38
2018-05-24T00:01:07.525Z,22.38
2018-05-24T00:01:39.110Z,22.38
2018-05-24T00:02:10.690Z,22.37
2018-05-24T00:02:42.270Z,22.38
2018-05-24T00:03:13.849Z,22.38
2018-05-24T00:03:45.465Z,22.37
2018-05-24T00:04:17.055Z,22.36
2018-05-24T00:04:48.650Z,22.37
2018-05-24T00:05:20.230Z,22.38
2018-05-24T00:05:51.814Z,22.38
2018-05-24T00:06:23.385Z,22.37
2018-05-24T00:06:54.960Z,22.38
2018-05-24T00:07:26.546Z,22.37
2018-05-24T00:07:58.177Z,22.37
2018-05-24T00:08:29.721Z,22.37
2018-05-24T00:09:01.359Z,22.38
2018-05-24T00:09:32.945Z,22.38
2018-05-24T00:10:04.526Z,22.38
2018-05-24T00:10:36.106Z,22.38
2018-05-24T00:11:07.686Z,22.39
2018-05-24T00:11:39.266Z,22.39
2018-05-24T00:12:10.850Z,22.38
2018-05-24T00:12:42.429Z,22.39
2018-05-24T00:13:14.009Z,22.38
2018-05-24T00:13:45.594Z,22.39
2018-05-24T00:14:17.218Z,22.39
2018-05-24T00:14:48.794Z,22.39
2018-05-24T00:15:20.374Z,22.39
2018-05-24T00:15:51.998Z,22.38
2018-05-24T00:16:23.578Z,22.38
2018-05-24T00:16:55.159Z,22.38
2018-05-24T00:17:26.742Z,22.38
2018-05-24T00:17:58.318Z,22.38
2018-05-24T00:18:29.892Z,22.39
2018-05-24T00:19:01.482Z,22.39
2018-05-24T00:19:33.063Z,22.38
2018-05-24T00:20:04.632Z,22.39
2018-05-24T00:20:36.244Z,22.39
2018-05-24T00:21:07.827Z,22.39
2018-05-24T00:21:39.410Z,22.39
2018-05-24T00:22:10.981Z,22.39
2018-05-24T00:22:42.548Z,22.38
2018-05-24T00:23:14.134Z,22.38
2018-05-24T00:23:45.714Z,22.38
2018-05-24T00:24:17.294Z,22.38
2018-05-24T00:24:48.970Z,22.38
2018-05-24T00:25:20.613Z,22.38
2018-05-24T00:25:52.280Z,22.37
2018-05-24T00:26:23.867Z,22.37
2018-05-24T00:26:55.445Z,22.38
2018-05-24T00:27:27.030Z,22.37
2018-05-24T00:27:58.610Z,22.38
2018-05-24T00:28:30.190Z,22.37
2018-05-24T00:29:01.778Z,22.38
2018-05-24T00:29:33.358Z,22.37
2018-05-24T00:30:04.947Z,22.37
2018-05-24T00:30:37.152Z,22.37
2018-05-24T00:31:08.734Z,22.37
2018-05-24T00:31:40.317Z,22.37
2018-05-24T00:32:11.932Z,22.37
2018-05-24T00:32:43.519Z,22.36
2018-05-24T00:33:15.101Z,22.36
2018-05-24T00:33:46.668Z,22.36
2018-05-24T00:34:18.236Z,22.36
2018-05-24T00:34:49.803Z,22.37
2018-05-24T00:35:21.382Z,22.36
2018-05-24T00:35:52.966Z,22.36
2018-05-24T00:36:24.593Z,22.37
2018-05-24T00:36:56.178Z,22.36
2018-05-24T00:37:27.744Z,22.36
2018-05-24T00:37:59.312Z,22.36
2018-05-24T00:38:30.893Z,22.37
2018-05-24T00:39:02.514Z,22.38
2018-05-24T00:39:34.099Z,22.38
2018-05-24T00:40:05.679Z,22.39
2018-05-24T00:40:37.248Z,22.39
2018-05-24T00:41:08.830Z,22.40
2018-05-24T00:41:40.407Z,22.41
2018-05-24T00:42:11.990Z,22.42
2018-05-24T00:42:43.570Z,22.41
2018-05-24T00:43:15.150Z,22.41
2018-05-24T00:43:46.770Z,22.42
2018-05-24T00:44:18.385Z,22.43
2018-05-24T00:44:49.962Z,22.42
2018-05-24T00:45:21.545Z,22.42
2018-05-24T00:45:53.130Z,22.42
2018-05-24T00:46:24.710Z,22.42
2018-05-24T00:46:56.294Z,22.41
2018-05-24T00:47:27.875Z,22.41
2018-05-24T00:47:59.514Z,22.41
2018-05-24T00:48:31.097Z,22.40
2018-05-24T00:49:02.686Z,22.41
2018-05-24T00:49:34.257Z,22.42
2018-05-24T00:50:05.838Z,22.40
2018-05-24T00:50:37.422Z,22.41
2018-05-24T00:51:09.094Z,22.42
2018-05-24T00:51:40.668Z,22.42
2018-05-24T00:52:12.246Z,22.42
2018-05-24T00:52:43.820Z,22.40
2018-05-24T00:53:15.445Z,22.42
2018-05-24T00:53:47.031Z,22.42
2018-05-24T00:54:18.613Z,22.42
2018-05-24T00:54:50.185Z,22.42
2018-05-24T00:55:21.762Z,22.42
2018-05-24T00:55:53.328Z,22.42
2018-05-24T00:56:25.001Z,22.43
2018-05-24T00:56:56.572Z,22.41
2018-05-24T00:57:28.154Z,22.41
2018-05-24T00:57:59.734Z,22.41
2018-05-24T00:58:31.358Z,22.42
2018-05-24T00:59:02.932Z,22.41
2018-05-24T00:59:34.500Z,22.42
2018-05-24T01:00:06.136Z,22.41
2018-05-24T01:00:37.660Z,22.41
2018-05-24T01:01:09.239Z,22.41
2018-05-24T01:01:40.818Z,22.41
2018-05-24T01:02:12.399Z,22.41
2018-05-24T01:02:43.981Z,22.41
2018-05-24T01:03:15.610Z,22.41
2018-05-24T01:03:47.222Z,22.41
2018-05-24T01:04:18.806Z,22.41
2018-05-24T01:04:50.376Z,22.41
2018-05-24T01:05:21.954Z,22.41
2018-05-24T01:05:53.539Z,22.41
2018-05-24T01:06:25.126Z,22.41
2018-05-24T01:06:56.693Z,22.40
2018-05-24T01:07:28.274Z,22.41
2018-05-24T01:07:59.942Z,22.41
2018-05-24T01:08:31.552Z,22.41
2018-05-24T01:09:03.143Z,22.42
2018-05-24T01:09:34.753Z,22.42
2018-05-24T01:10:06.379Z,22.42
2018-05-24T01:10:37.962Z,22.41
2018-05-24T01:11:09.546Z,22.41
2018-05-24T01:11:41.126Z,22.41
2018-05-24T01:12:12.706Z,22.43
2018-05-24T01:12:44.289Z,22.42
2018-05-24T01:13:15.874Z,22.42
2018-05-24T01:13:47.444Z,22.43
2018-05-24T01:14:19.016Z,22.44
2018-05-24T01:14:50.586Z,22.42
2018-05-24T01:15:22.199Z,22.42
2018-05-24T01:15:53.846Z,22.42
2018-05-24T01:16:25.372Z,22.42
2018-05-24T01:16:56.949Z,22.39
2018-05-24T01:17:28.534Z,22.41
2018-05-24T01:18:00.118Z,22.41
2018-05-24T01:18:31.702Z,22.41
2018-05-24T01:19:03.286Z,22.42
2018-05-24T01:19:34.870Z,22.41
2018-05-24T01:20:06.448Z,22.41
2018-05-24T01:20:38.070Z,22.38
2018-05-24T01:21:09.649Z,22.39
2018-05-24T01:21:41.234Z,22.40
2018-05-24T01:22:12.814Z,22.40
2018-05-24T01:22:44.388Z,22.39
2018-05-24T01:23:16.014Z,22.40
2018-05-24T01:23:47.594Z,22.39
2018-05-24T01:24:19.174Z,22.40
2018-05-24T01:24:50.757Z,22.37
2018-05-24T01:25:22.372Z,22.38
2018-05-24T01:25:53.944Z,22.38
2018-05-24T01:26:25.522Z,22.39
2018-05-24T01:26:57.096Z,22.38
2018-05-24T01:27:28.667Z,22.36
2018-05-24T01:28:00.246Z,22.38
2018-05-24T01:28:31.822Z,22.37
2018-05-24T01:29:03.452Z,22.38
2018-05-24T01:29:35.038Z,22.37
2018-05-24T01:30:06.622Z,22.37
2018-05-24T01:30:38.250Z,22.37
2018-05-24T01:31:09.830Z,22.37
2018-05-24T01:31:41.414Z,22.38
2018-05-24T01:32:12.993Z,22.37
2018-05-24T01:32:44.577Z,22.37
2018-05-24T01:33:16.148Z,22.37
2018-05-24T01:33:47.774Z,22.38
2018-05-24T01:34:19.350Z,22.38
2018-05-24T01:34:50.934Z,22.37
2018-05-24T01:35:22.505Z,22.37
2018-05-24T01:35:54.086Z,22.36
2018-05-24T01:36:25.670Z,22.37
2018-05-24T01:36:57.241Z,22.36
2018-05-24T01:37:28.822Z,22.37
2018-05-24T01:38:00.392Z,22.38
2018-05-24T01:38:31.979Z,22.38
2018-05-24T01:39:03.602Z,22.38
2018-05-24T01:39:35.186Z,22.38
2018-05-24T01:40:06.770Z,22.37
2018-05-24T01:40:38.354Z,22.40
2018-05-24T01:41:09.940Z,22.45
2018-05-24T01:41:41.527Z,22.49
2018-05-24T01:42:13.149Z,22.53
2018-05-24T01:42:44.722Z,22.59
2018-05-24T01:43:16.305Z,22.67
2018-05-24T01:43:47.887Z,22.68
2018-05-24T01:44:19.474Z,22.66
2018-05-24T01:44:51.053Z,22.65
2018-05-24T01:45:22.637Z,22.62
2018-05-24T01:45:54.223Z,22.59
2018-05-24T01:46:25.802Z,22.56
2018-05-24T01:46:57.386Z,22.55
2018-05-24T01:47:28.970Z,22.51
2018-05-24T01:48:00.554Z,22.48
2018-05-24T01:48:32.143Z,22.46
2018-05-24T01:49:03.712Z,22.43
2018-05-24T01:49:35.296Z,22.42
2018-05-24T01:50:06.878Z,22.39
2018-05-24T01:50:38.516Z,22.37
2018-05-24T01:51:10.105Z,22.36
2018-05-24T01:51:41.689Z,22.34
2018-05-24T01:52:13.322Z,22.35
2018-05-24T01:52:44.906Z,22.33
2018-05-24T01:53:16.486Z,22.32
2018-05-24T01:53:48.056Z,22.30
2018-05-24T01:54:19.634Z,22.29
2018-05-24T01:54:51.201Z,22.28
2018-05-24T01:55:22.782Z,22.27
2018-05-24T01:55:54.362Z,22.26
2018-05-24T01:56:25.946Z,22.25
2018-05-24T01:56:57.530Z,22.24
2018-05-24T01:57:29.145Z,22.21
2018-05-24T01:58:00.722Z,22.20
2018-05-24T01:58:32.305Z,22.18
2018-05-24T01:59:03.881Z,22.19
2018-05-24T01:59:35.462Z,22.19
2018-05-24T02:00:07.043Z,22.23
2018-05-24T02:00:38.612Z,22.26
2018-05-24T02:01:10.210Z,22.25
2018-05-24T02:01:41.799Z,22.25
2018-05-24T02:02:13.412Z,22.24
2018-05-24T02:02:44.999Z,22.21
2018-05-24T02:03:16.577Z,22.20
2018-05-24T02:03:48.162Z,22.18
2018-05-24T02:04:19.742Z,22.17
2018-05-24T02:04:51.323Z,22.15
2018-05-24T02:05:22.900Z,22.14
2018-05-24T02:05:54.473Z,22.12
2018-05-24T02:06:26.054Z,22.12
2018-05-24T02:06:57.634Z,22.10
2018-05-24T02:07:29.258Z,22.10
2018-05-24T02:08:00.847Z,22.09
2018-05-24T02:08:32.434Z,22.08
2018-05-24T02:09:04.000Z,22.07
2018-05-24T02:09:35.578Z,22.07
2018-05-24T02:10:07.166Z,22.07
2018-05-24T02:10:38.746Z,22.05
2018-05-24T02:11:10.356Z,22.06
2018-05-24T02:11:41.942Z,22.05
2018-05-24T02:12:13.526Z,22.05
2018-05-24T02:12:45.096Z,22.04
2018-05-24T02:13:16.678Z,22.03
2018-05-24T02:13:48.258Z,22.04
2018-05-24T02:14:19.838Z,22.04
2018-05-24T02:14:51.412Z,22.03
2018-05-24T02:15:22.990Z,22.02
2018-05-24T02:15:54.578Z,22.02
2018-05-24T02:16:26.199Z,22.03
2018-05-24T02:16:57.781Z,22.03
2018-05-24T02:17:29.349Z,22.02
2018-05-24T02:18:00.926Z,22.02
2018-05-24T02:18:32.500Z,22.03
2018-05-24T02:19:04.090Z,22.03
2018-05-24T02:19:35.674Z,22.04
2018-05-24T02:20:07.245Z,22.04
2018-05-24T02:20:38.826Z,22.04
2018-05-24T02:21:10.398Z,22.04
2018-05-24T02:21:42.038Z,22.05
2018-05-24T02:22:13.622Z,22.05
2018-05-24T02:22:45.202Z,22.06
2018-05-24T02:23:16.780Z,22.07
2018-05-24T02:23:48.370Z,22.07
2018-05-24T02:24:19.944Z,22.07
2018-05-24T02:24:51.530Z,22.07
2018-05-24T02:25:23.099Z,22.06
2018-05-24T02:25:54.682Z,22.08
2018-05-24T02:26:26.265Z,22.06
2018-05-24T02:26:57.894Z,22.07
2018-05-24T02:27:29.460Z,22.07
2018-05-24T02:28:01.049Z,22.06
2018-05-24T02:28:32.617Z,22.05
2018-05-24T02:29:04.280Z,22.04
2018-05-24T02:29:35.843Z,22.02
2018-05-24T02:30:07.422Z,22.04
2018-05-24T02:30:39.010Z,22.03
2018-05-24T02:31:10.593Z,22.02
2018-05-24T02:31:42.165Z,22.02
2018-05-24T02:32:13.809Z,22.02
2018-05-24T02:32:45.377Z,22.01
2018-05-24T02:33:16.965Z,22.01
2018-05-24T02:33:48.550Z,22.01
2018-05-24T02:34:20.130Z,22.01
2018-05-24T02:34:51.714Z,22.01
2018-05-24T02:35:23.284Z,22.00
2018-05-24T02:35:55.091Z,22.00
2018-05-24T02:36:26.467Z,21.99
2018-05-24T02:36:58.047Z,21.99
2018-05-24T02:37:29.675Z,21.98
2018-05-24T02:38:01.262Z,21.98
2018-05-24T02:38:32.850Z,21.98
2018-05-24T02:39:04.431Z,21.98
2018-05-24T02:39:36.009Z,21.95
2018-05-24T02:40:07.594Z,21.97
2018-05-24T02:40:39.164Z,21.97
2018-05-24T02:41:10.750Z,21.96
2018-05-24T02:41:42.339Z,21.96
2018-05-24T02:42:13.933Z,21.96
2018-05-24T02:42:45.508Z,21.95
2018-05-24T02:43:17.130Z,21.95
2018-05-24T02:43:48.710Z,21.95
2018-05-24T02:44:20.294Z,21.94
2018-05-24T02:44:51.879Z,21.94
2018-05-24T02:45:23.445Z,21.94
2018-05-24T02:45:55.017Z,21.94
2018-05-24T02:46:26.584Z,21.94
2018-05-24T02:46:58.167Z,21.94
2018-05-24T02:47:29.740Z,21.94
2018-05-24T02:48:01.318Z,21.93
2018-05-24T02:48:32.944Z,21.93
2018-05-24T02:49:04.535Z,21.93
2018-05-24T02:49:36.122Z,21.93
2018-05-24T02:50:07.706Z,21.94
2018-05-24T02:50:39.294Z,21.94
2018-05-24T02:51:10.878Z,21.94
2018-05-24T02:51:42.458Z,21.93
2018-05-24T02:52:14.055Z,21.93
2018-05-24T02:52:45.630Z,21.94
2018-05-24T02:53:17.210Z,21.94
2018-05-24T02:53:48.837Z,21.93
2018-05-24T02:54:20.408Z,21.93
2018-05-24T02:54:51.994Z,21.93
2018-05-24T02:55:23.565Z,21.93
2018-05-24T02:55:55.142Z,21.93
2018-05-24T02:56:26.712Z,21.93
2018-05-24T02:56:58.290Z,21.93
2018-05-24T02:57:29.864Z,21.92
2018-05-24T02:58:01.443Z,21.92
2018-05-24T02:58:33.022Z,21.92
2018-05-24T02:59:04.646Z,21.92
2018-05-24T02:59:36.229Z,21.92
2018-05-24T03:00:07.810Z,21.92
2018-05-24T03:00:39.385Z,21.91
2018-05-24T03:01:10.956Z,21.91
2018-05-24T03:01:42.638Z,21.91
2018-05-24T03:02:14.146Z,21.91
2018-05-24T03:02:45.726Z,21.90
2018-05-24T03:03:17.299Z,21.90
2018-05-24T03:03:48.927Z,21.91
2018-05-24T03:04:20.496Z,21.90
2018-05-24T03:04:52.076Z,21.90
2018-05-24T03:05:23.662Z,21.90
2018-05-24T03:05:55.239Z,21.90
2018-05-24T03:06:26.822Z,21.91
2018-05-24T03:06:58.396Z,21.91
2018-05-24T03:07:29.974Z,21.92
2018-05-24T03:08:01.552Z,21.91
2018-05-24T03:08:33.134Z,21.92
2018-05-24T03:09:04.763Z,21.91
2018-05-24T03:09:36.346Z,21.91
2018-05-24T03:10:07.916Z,21.92
2018-05-24T03:10:39.502Z,21.92
2018-05-24T03:11:11.105Z,21.93
2018-05-24T03:11:42.694Z,21.94
2018-05-24T03:12:14.285Z,21.94
2018-05-24T03:12:45.861Z,21.93
2018-05-24T03:13:17.438Z,21.96
2018-05-24T03:13:49.024Z,21.96
2018-05-24T03:14:20.630Z,21.97
2018-05-24T03:14:52.209Z,21.97
2018-05-24T03:15:23.790Z,21.97
2018-05-24T03:15:55.370Z,21.98
2018-05-24T03:16:27.000Z,21.98
2018-05-24T03:16:58.569Z,21.98
2018-05-24T03:17:30.138Z,21.98
2018-05-24T03:18:01.724Z,21.98
2018-05-24T03:18:33.311Z,21.98
2018-05-24T03:19:04.902Z,21.98
2018-05-24T03:19:36.476Z,21.97
2018-05-24T03:20:08.054Z,21.97
2018-05-24T03:20:39.624Z,21.96
2018-05-24T03:21:11.205Z,21.97
2018-05-24T03:21:42.820Z,21.97
2018-05-24T03:22:14.405Z,21.96
2018-05-24T03:22:45.972Z,21.96
2018-05-24T03:23:17.549Z,21.96
2018-05-24T03:23:49.132Z,21.95
2018-05-24T03:24:20.718Z,21.93
2018-05-24T03:24:52.292Z,21.94
2018-05-24T03:25:23.904Z,21.92
2018-05-24T03:25:55.482Z,21.93
2018-05-24T03:26:27.066Z,21.92
2018-05-24T03:26:58.636Z,21.91
2018-05-24T03:27:30.219Z,21.91
2018-05-24T03:28:01.785Z,21.91
2018-05-24T03:28:33.370Z,21.91
2018-05-24T03:29:04.944Z,21.91
2018-05-24T03:29:36.522Z,21.90
2018-05-24T03:30:08.095Z,21.88
2018-05-24T03:30:39.668Z,21.89
2018-05-24T03:31:11.254Z,21.89
2018-05-24T03:31:42.831Z,21.89
2018-05-24T03:32:14.409Z,21.89
2018-05-24T03:32:45.994Z,21.88
2018-05-24T03:33:17.568Z,21.87
2018-05-24T03:33:49.146Z,21.86
2018-05-24T03:34:20.760Z,21.87
2018-05-24T03:34:52.386Z,21.86
2018-05-24T03:35:23.974Z,21.86
2018-05-24T03:35:55.552Z,21.86
2018-05-24T03:36:27.134Z,21.85
2018-05-24T03:36:58.744Z,21.85
2018-05-24T03:37:30.376Z,21.83
2018-05-24T03:38:01.931Z,21.85
2018-05-24T03:38:33.504Z,21.85
2018-05-24T03:39:05.082Z,21.84
2018-05-24T03:39:36.666Z,21.84
2018-05-24T03:40:08.240Z,21.83
2018-05-24T03:40:39.869Z,21.83
2018-05-24T03:41:11.436Z,21.83
2018-05-24T03:41:43.022Z,21.83
2018-05-24T03:42:14.592Z,21.82
2018-05-24T03:42:46.173Z,21.83
2018-05-24T03:43:17.754Z,21.83
2018-05-24T03:43:49.329Z,21.80
2018-05-24T03:44:20.901Z,21.82
2018-05-24T03:44:52.479Z,21.82
2018-05-24T03:45:24.048Z,21.81
2018-05-24T03:45:55.670Z,21.80
2018-05-24T03:46:27.301Z,21.81
2018-05-24T03:46:58.877Z,21.82
2018-05-24T03:47:30.462Z,21.81
2018-05-24T03:48:02.042Z,21.80
2018-05-24T03:48:33.616Z,21.78
2018-05-24T03:49:05.198Z,21.80
2018-05-24T03:49:36.774Z,21.80
2018-05-24T03:50:08.355Z,21.80
2018-05-24T03:50:39.938Z,21.80
2018-05-24T03:51:11.518Z,21.81
2018-05-24T03:51:43.098Z,21.82
2018-05-24T03:52:14.760Z,21.82
2018-05-24T03:52:46.270Z,21.82
2018-05-24T03:53:17.899Z,21.82
2018-05-24T03:53:49.477Z,21.83
2018-05-24T03:54:21.043Z,21.82
2018-05-24T03:54:52.625Z,21.82
2018-05-24T03:55:24.206Z,21.82
2018-05-24T03:55:55.787Z,21.82
2018-05-24T03:56:27.365Z,21.82
2018-05-24T03:56:58.952Z,21.84
2018-05-24T03:57:30.578Z,21.84
2018-05-24T03:58:02.149Z,21.85
2018-05-24T03:58:33.716Z,21.86
2018-05-24T03:59:05.284Z,21.86
2018-05-24T03:59:36.870Z,21.87
2018-05-24T04:00:08.462Z,21.87
2018-05-24T04:00:40.042Z,21.88
2018-05-24T04:01:11.664Z,21.89
2018-05-24T04:01:43.246Z,21.90
2018-05-24T04:02:14.835Z,21.89
2018-05-24T04:02:46.409Z,21.89
2018-05-24T04:03:17.993Z,21.89
2018-05-24T04:03:49.631Z,21.90
2018-05-24T04:04:21.204Z,21.89
2018-05-24T04:04:52.781Z,21.88
2018-05-24T04:05:24.366Z,21.89
2018-05-24T04:05:55.950Z,21.88
2018-05-24T04:06:27.530Z,21.87
2018-05-24T04:06:59.183Z,21.87
2018-05-24T04:07:30.762Z,21.87
2018-05-24T04:08:02.346Z,21.87
2018-05-24T04:08:33.920Z,21.87
2018-05-24T04:09:05.648Z,21.86
2018-05-24T04:09:37.217Z,21.85
2018-05-24T04:10:08.784Z,21.85
2018-05-24T04:10:40.353Z,21.84
2018-05-24T04:11:11.923Z,21.84
2018-05-24T04:11:43.506Z,21.85
2018-05-24T04:12:15.086Z,21.85
2018-05-24T04:12:46.665Z,21.84
2018-05-24T04:13:18.247Z,21.84
2018-05-24T04:13:49.816Z,21.84
2018-05-24T04:14:21.442Z,21.84
2018-05-24T04:14:53.030Z,21.83
2018-05-24T04:15:24.637Z,21.83
2018-05-24T04:15:56.218Z,21.83
2018-05-24T04:16:27.788Z,21.83
2018-05-24T04:16:59.366Z,21.82
2018-05-24T04:17:30.940Z,21.82
2018-05-24T04:18:02.570Z,21.82
2018-05-24T04:18:34.162Z,21.82
2018-05-24T04:19:05.742Z,21.82
2018-05-24T04:19:37.326Z,21.81
2018-05-24T04:20:08.909Z,21.82
2018-05-24T04:20:40.480Z,21.81
2018-05-24T04:21:12.053Z,21.81
2018-05-24T04:21:43.631Z,21.81
2018-05-24T04:22:15.213Z,21.80
2018-05-24T04:22:46.798Z,21.80
2018-05-24T04:23:18.421Z,21.79
2018-05-24T04:23:50.014Z,21.79
2018-05-24T04:24:21.598Z,21.78
2018-05-24T04:24:53.169Z,21.79
2018-05-24T04:25:24.741Z,21.78
2018-05-24T04:25:56.367Z,21.78
2018-05-24T04:26:27.946Z,21.78
2018-05-24T04:26:59.564Z,21.78
2018-05-24T04:27:31.134Z,21.78
2018-05-24T04:28:02.719Z,21.78
2018-05-24T04:28:34.302Z,21.78
2018-05-24T04:29:05.882Z,21.79
2018-05-24T04:29:37.470Z,21.80
2018-05-24T04:30:09.054Z,21.80
2018-05-24T04:30:40.643Z,21.81
2018-05-24T04:31:12.270Z,21.82
2018-05-24T04:31:43.841Z,21.84
2018-05-24T04:32:15.430Z,21.83
2018-05-24T04:32:47.014Z,21.85
2018-05-24T04:33:18.584Z,21.84
2018-05-24T04:33:50.170Z,21.85
2018-05-24T04:34:21.834Z,21.84
2018-05-24T04:34:53.418Z,21.85
2018-05-24T04:35:25.030Z,21.85
2018-05-24T04:35:56.610Z,21.86
2018-05-24T04:36:28.239Z,21.87
2018-05-24T04:36:59.827Z,21.87
2018-05-24T04:37:31.397Z,21.88
2018-05-24T04:38:02.974Z,21.88
2018-05-24T04:38:34.556Z,21.88
2018-05-24T04:39:06.142Z,21.89
2018-05-24T04:39:37.726Z,21.89
2018-05-24T04:40:09.317Z,21.89
2018-05-24T04:40:40.974Z,21.90
2018-05-24T04:41:12.592Z,21.90
2018-05-24T04:41:44.182Z,21.91
2018-05-24T04:42:15.770Z,21.92
2018-05-24T04:42:47.347Z,21.93
2018-05-24T04:43:18.930Z,21.93
2018-05-24T04:43:50.513Z,21.96
2018-05-24T04:44:22.098Z,21.97
2018-05-24T04:44:53.686Z,21.98
2018-05-24T04:45:25.343Z,22.00
2018-05-24T04:45:56.863Z,22.01
2018-05-24T04:46:28.497Z,22.03
2018-05-24T04:47:00.081Z,22.01
2018-05-24T04:47:31.652Z,22.02
2018-05-24T04:48:03.236Z,22.01
2018-05-24T04:48:34.814Z,22.00
2018-05-24T04:49:06.385Z,21.99
2018-05-24T04:49:37.961Z,21.97
2018-05-24T04:50:09.538Z,21.97
2018-05-24T04:50:41.105Z,21.96
2018-05-24T04:51:12.691Z,21.95
2018-05-24T04:51:44.274Z,21.94
2018-05-24T04:52:15.924Z,21.93
2018-05-24T04:52:47.463Z,21.92
2018-05-24T04:53:19.051Z,21.91
2018-05-24T04:53:50.620Z,21.92
2018-05-24T04:54:22.202Z,21.92
2018-05-24T04:54:53.773Z,21.92
2018-05-24T04:55:25.353Z,21.92
2018-05-24T04:55:56.939Z,21.91
2018-05-24T04:56:28.518Z,21.91
2018-05-24T04:57:00.158Z,21.92
2018-05-24T04:57:31.730Z,21.92
2018-05-24T04:58:03.315Z,21.93
2018-05-24T04:58:34.889Z,21.93
2018-05-24T04:59:06.471Z,21.92
2018-05-24T04:59:38.050Z,21.93
2018-05-24T05:00:09.621Z,21.94
2018-05-24T05:00:41.202Z,21.94
2018-05-24T05:01:12.776Z,21.93
2018-05-24T05:01:44.422Z,21.96
2018-05-24T05:02:15.992Z,21.94
2018-05-24T05:02:47.563Z,21.97
2018-05-24T05:03:19.144Z,21.79
2018-05-24T05:03:50.716Z,21.99
2018-05-24T05:04:22.340Z,21.98
2018-05-24T05:04:53.922Z,22.00
2018-05-24T05:05:25.511Z,22.01
2018-05-24T05:05:57.081Z,22.02
2018-05-24T05:06:28.658Z,22.03
2018-05-24T05:07:00.237Z,22.04
2018-05-24T05:07:31.862Z,22.03
2018-05-24T05:08:03.441Z,22.04
2018-05-24T05:08:35.012Z,22.04
2018-05-24T05:09:06.584Z,22.04
2018-05-24T05:09:38.165Z,22.03
2018-05-24T05:10:09.780Z,22.03
2018-05-24T05:10:41.366Z,22.03
2018-05-24T05:11:12.933Z,22.03
2018-05-24T05:11:44.513Z,22.03
2018-05-24T05:12:16.097Z,22.02
2018-05-24T05:12:47.678Z,22.02
2018-05-24T05:13:19.333Z,22.02
2018-05-24T05:13:50.942Z,22.02
2018-05-24T05:14:22.526Z,22.00
2018-05-24T05:14:54.149Z,21.99
2018-05-24T05:15:25.730Z,22.00
2018-05-24T05:15:57.310Z,22.00
2018-05-24T05:16:28.894Z,21.99
2018-05-24T05:17:00.474Z,21.99
2018-05-24T05:17:32.058Z,21.98
2018-05-24T05:18:03.638Z,21.97
2018-05-24T05:18:35.224Z,21.97
2018-05-24T05:19:06.802Z,21.97
2018-05-24T05:19:38.465Z,21.97
2018-05-24T05:20:10.038Z,21.96
2018-05-24T05:20:41.654Z,21.95
2018-05-24T05:21:13.242Z,21.94
2018-05-24T05:21:44.818Z,21.94
2018-05-24T05:22:16.402Z,21.92
2018-05-24T05:22:48.030Z,21.92
2018-05-24T05:23:19.617Z,21.91
2018-05-24T05:23:51.192Z,21.90
2018-05-24T05:24:22.761Z,21.90
2018-05-24T05:24:54.350Z,21.89
2018-05-24T05:25:25.920Z,21.86
2018-05-24T05:25:57.551Z,21.88
2018-05-24T05:26:29.130Z,21.87
2018-05-24T05:27:00.710Z,21.87
2018-05-24T05:27:32.284Z,21.84
2018-05-24T05:28:03.853Z,21.85
2018-05-24T05:28:35.438Z,21.85
2018-05-24T05:29:07.049Z,21.85
2018-05-24T05:29:38.626Z,21.85
2018-05-24T05:30:10.253Z,21.83
2018-05-24T05:30:41.888Z,21.84
2018-05-24T05:31:13.472Z,21.83
2018-05-24T05:31:45.094Z,21.84
2018-05-24T05:32:16.678Z,21.83
2018-05-24T05:32:48.259Z,21.82
2018-05-24T05:33:19.833Z,21.83
2018-05-24T05:33:51.410Z,21.83
2018-05-24T05:34:22.990Z,21.82
2018-05-24T05:34:54.597Z,21.82
2018-05-24T05:35:26.222Z,21.82
2018-05-24T05:35:57.805Z,21.82
2018-05-24T05:36:29.421Z,21.80
2018-05-24T05:37:01.002Z,21.81
2018-05-24T05:37:32.682Z,21.81
2018-05-24T05:38:04.201Z,21.80
2018-05-24T05:38:35.768Z,21.80
2018-05-24T05:39:07.346Z,21.80
2018-05-24T05:39:38.916Z,21.80
2018-05-24T05:40:10.494Z,21.79
2018-05-24T05:40:42.114Z,21.80
2018-05-24T05:41:13.680Z,21.79
2018-05-24T05:41:45.311Z,21.80
2018-05-24T05:42:16.890Z,21.79
2018-05-24T05:42:48.479Z,21.78
2018-05-24T05:43:20.067Z,21.78
2018-05-24T05:43:51.640Z,21.78
2018-05-24T05:44:23.218Z,21.78
2018-05-24T05:44:54.872Z,21.76
2018-05-24T05:45:26.436Z,21.78
2018-05-24T05:45:58.015Z,21.78
2018-05-24T05:46:29.581Z,21.77
2018-05-24T05:47:01.162Z,21.78
2018-05-24T05:47:32.742Z,21.77
2018-05-24T05:48:04.362Z,21.76
2018-05-24T05:48:35.936Z,21.77
2018-05-24T05:49:07.512Z,21.60
2018-05-24T05:49:39.122Z,21.77
2018-05-24T05:50:10.705Z,21.77
2018-05-24T05:50:42.289Z,21.77
2018-05-24T05:51:13.911Z,21.76
2018-05-24T05:51:45.491Z,21.76
2018-05-24T05:52:17.078Z,21.76
2018-05-24T05:52:48.652Z,21.76
2018-05-24T05:53:20.235Z,21.76
2018-05-24T05:53:51.809Z,21.76
2018-05-24T05:54:23.598Z,21.76
2018-05-24T05:54:55.172Z,21.75
2018-05-24T05:55:26.838Z,21.76
2018-05-24T05:55:58.422Z,21.76
2018-05-24T05:56:30.002Z,21.76
2018-05-24T05:57:01.591Z,21.76
2018-05-24T05:57:33.163Z,21.74
2018-05-24T05:58:04.737Z,21.76
2018-05-24T05:58:36.318Z,21.76
2018-05-24T05:59:07.902Z,21.77
2018-05-24T05:59:39.512Z,21.77
2018-05-24T06:00:11.090Z,21.77
2018-05-24T06:00:42.678Z,21.76
2018-05-24T06:01:14.257Z,21.77
2018-05-24T06:01:45.846Z,21.77
2018-05-24T06:02:17.437Z,21.77
2018-05-24T06:02:49.028Z,21.77
2018-05-24T06:03:20.620Z,21.77
2018-05-24T06:03:52.192Z,21.78
2018-05-24T06:04:23.774Z,21.77
2018-05-24T06:04:55.394Z,21.78
2018-05-24T06:05:26.975Z,21.78
2018-05-24T06:05:58.554Z,21.77
2018-05-24T06:06:30.123Z,21.78
2018-05-24T06:07:01.702Z,21.77
2018-05-24T06:07:33.281Z,21.78
2018-05-24T06:08:04.866Z,21.78
2018-05-24T06:08:36.438Z,21.78
2018-05-24T06:09:08.019Z,21.78
2018-05-24T06:09:39.613Z,21.78
2018-05-24T06:10:11.247Z,21.78
2018-05-24T06:10:42.826Z,21.79
2018-05-24T06:11:14.437Z,21.80
2018-05-24T06:11:46.017Z,21.79
2018-05-24T06:12:17.588Z,21.79
2018-05-24T06:12:49.174Z,21.79
2018-05-24T06:13:20.757Z,21.79
2018-05-24T06:13:52.348Z,21.79
2018-05-24T06:14:23.944Z,21.80
2018-05-24T06:14:55.561Z,21.80
2018-05-24T06:15:27.172Z,21.81
2018-05-24T06:15:58.789Z,21.80
2018-05-24T06:16:30.373Z,21.80
2018-05-24T06:17:01.958Z,21.80
2018-05-24T06:17:33.559Z,21.79
2018-05-24T06:18:05.142Z,21.80
2018-05-24T06:18:36.737Z,21.80
2018-05-24T06:19:08.342Z,21.79
2018-05-24T06:19:39.929Z,21.79
2018-05-24T06:20:11.566Z,21.79
2018-05-24T06:20:43.165Z,21.79
2018-05-24T06:21:14.741Z,21.79
2018-05-24T06:21:46.382Z,21.80
2018-05-24T06:22:17.990Z,21.80
2018-05-24T06:22:49.593Z,21.78
2018-05-24T06:23:21.203Z,21.80
2018-05-24T06:23:52.841Z,21.81
2018-05-24T06:24:24.454Z,21.79
2018-05-24T06:24:56.044Z,21.82
2018-05-24T06:25:27.612Z,21.84
2018-05-24T06:25:59.217Z,21.84
2018-05-24T06:26:30.802Z,21.85
2018-05-24T06:27:02.376Z,21.85
2018-05-24T06:27:33.972Z,21.85
2018-05-24T06:28:05.585Z,21.85
2018-05-24T06:28:37.270Z,21.87
2018-05-24T06:29:08.816Z,21.87
2018-05-24T06:29:40.412Z,21.89
2018-05-24T06:30:12.016Z,21.90
2018-05-24T06:30:43.613Z,21.90
2018-05-24T06:31:15.188Z,21.92
2018-05-24T06:31:46.774Z,21.92
2018-05-24T06:32:18.368Z,21.94
2018-05-24T06:32:49.985Z,21.95
2018-05-24T06:33:21.580Z,21.94
2018-05-24T06:33:53.226Z,21.98
2018-05-24T06:34:24.851Z,21.99
2018-05-24T06:34:56.462Z,22.01
2018-05-24T06:35:28.056Z,22.03
2018-05-24T06:35:59.652Z,22.04
2018-05-24T06:36:31.257Z,22.06
2018-05-24T06:37:02.897Z,22.08
2018-05-24T06:37:34.500Z,22.09
2018-05-24T06:38:06.097Z,22.10
2018-05-24T06:38:37.680Z,22.11
2018-05-24T06:39:09.294Z,22.12
2018-05-24T06:39:40.913Z,22.11
2018-05-24T06:40:12.506Z,22.13
2018-05-24T06:40:44.157Z,22.13
2018-05-24T06:41:15.771Z,22.16
2018-05-24T06:41:47.378Z,22.15
2018-05-24T06:42:18.964Z,22.16
2018-05-24T06:42:50.576Z,22.17
2018-05-24T06:43:22.153Z,22.17
2018-05-24T06:43:53.756Z,22.17
2018-05-24T06:44:25.362Z,22.17
2018-05-24T06:44:56.945Z,22.17
2018-05-24T06:45:28.525Z,22.17
2018-05-24T06:46:00.133Z,22.18
2018-05-24T06:46:31.764Z,22.17